sensor_id;sensor_type;location;lat;lon;timestamp;P1;durP1;ratioP1;P2;durP2;ratioP2
31732;SDS011;18312;51.486;7.144;2022-10-03T00:02:11;20.02;;;4.10;;
31732;SDS011;18312;51.486;7.144;2022-10-03T00:04:49;20.27;;;3.85;;
31732;SDS011;18312;51.486;7.144;2022-10-03T00:07:34;22.63;;;4.85;;
31732;SDS011;18312;51.486;7.144;2022-10-03T00:10:17;18.10;;;4.57;;
31732;SDS011;18312;51.486;7.144;2022-10-03T00:12:55;26.02;;;5.10;;
31732;SDS011;18312;51.486;7.144;2022-10-03T00:15:33;15.95;;;4.80;;
31732;SDS011;18312;51.486;7.144;2022-10-03T00:18:12;20.52;;;5.05;;
31732;SDS011;18312;51.486;7.144;2022-10-03T00:20:59;20.83;;;4.60;;
31732;SDS011;18312;51.486;7.144;2022-10-03T00:23:36;20.33;;;4.30;;
31732;SDS011;18312;51.486;7.144;2022-10-03T00:26:09;19.23;;;5.18;;
31732;SDS011;18312;51.486;7.144;2022-10-03T00:29:05;17.23;;;4.93;;
31732;SDS011;18312;51.486;7.144;2022-10-03T00:31:59;12.10;;;4.20;;
31732;SDS011;18312;51.486;7.144;2022-10-03T00:34:43;29.70;;;5.68;;
31732;SDS011;18312;51.486;7.144;2022-10-03T00:37:23;24.15;;;5.88;;
31732;SDS011;18312;51.486;7.144;2022-10-03T00:49:09;20.75;;;5.55;;
31732;SDS011;18312;51.486;7.144;2022-10-03T00:52:00;26.17;;;5.63;;
31732;SDS011;18312;51.486;7.144;2022-10-03T00:54:46;30.60;;;6.25;;
31732;SDS011;18312;51.486;7.144;2022-10-03T00:57:29;15.68;;;4.47;;
31732;SDS011;18312;51.486;7.144;2022-10-03T01:00:15;23.43;;;4.53;;
31732;SDS011;18312;51.486;7.144;2022-10-03T01:02:47;34.67;;;5.78;;
31732;SDS011;18312;51.486;7.144;2022-10-03T01:05:36;33.45;;;5.82;;
31732;SDS011;18312;51.486;7.144;2022-10-03T01:08:28;12.45;;;4.88;;
31732;SDS011;18312;51.486;7.144;2022-10-03T01:11:05;15.85;;;5.28;;
31732;SDS011;18312;51.486;7.144;2022-10-03T01:13:47;20.45;;;5.78;;
31732;SDS011;18312;51.486;7.144;2022-10-03T01:16:24;22.55;;;5.57;;
31732;SDS011;18312;51.486;7.144;2022-10-03T01:19:04;19.02;;;6.30;;
31732;SDS011;18312;51.486;7.144;2022-10-03T01:21:45;24.27;;;5.63;;
31732;SDS011;18312;51.486;7.144;2022-10-03T01:24:24;18.48;;;5.90;;
31732;SDS011;18312;51.486;7.144;2022-10-03T01:27:12;14.57;;;6.00;;
31732;SDS011;18312;51.486;7.144;2022-10-03T01:29:46;16.70;;;5.75;;
31732;SDS011;18312;51.486;7.144;2022-10-03T01:32:49;23.50;;;5.85;;
31732;SDS011;18312;51.486;7.144;2022-10-03T01:35:22;24.23;;;6.68;;
31732;SDS011;18312;51.486;7.144;2022-10-03T01:38:00;22.65;;;6.00;;
31732;SDS011;18312;51.486;7.144;2022-10-03T01:40:35;21.45;;;5.75;;
31732;SDS011;18312;51.486;7.144;2022-10-03T01:43:13;26.48;;;7.10;;
31732;SDS011;18312;51.486;7.144;2022-10-03T01:46:00;35.40;;;7.32;;
31732;SDS011;18312;51.486;7.144;2022-10-03T01:48:36;23.58;;;6.45;;
31732;SDS011;18312;51.486;7.144;2022-10-03T01:51:12;25.42;;;5.93;;
31732;SDS011;18312;51.486;7.144;2022-10-03T01:53:47;26.13;;;6.68;;
31732;SDS011;18312;51.486;7.144;2022-10-03T01:56:23;20.85;;;6.90;;
31732;SDS011;18312;51.486;7.144;2022-10-03T01:58:59;26.48;;;7.20;;
31732;SDS011;18312;51.486;7.144;2022-10-03T02:01:35;25.05;;;6.50;;
31732;SDS011;18312;51.486;7.144;2022-10-03T02:04:10;28.23;;;7.05;;
31732;SDS011;18312;51.486;7.144;2022-10-03T02:06:42;20.75;;;5.75;;
31732;SDS011;18312;51.486;7.144;2022-10-03T02:09:19;29.15;;;7.53;;
31732;SDS011;18312;51.486;7.144;2022-10-03T02:11:56;30.08;;;5.63;;
31732;SDS011;18312;51.486;7.144;2022-10-03T02:14:29;35.25;;;6.72;;
31732;SDS011;18312;51.486;7.144;2022-10-03T02:17:07;22.40;;;6.03;;
31732;SDS011;18312;51.486;7.144;2022-10-03T02:19:40;25.02;;;6.15;;
31732;SDS011;18312;51.486;7.144;2022-10-03T02:22:13;24.33;;;6.95;;
31732;SDS011;18312;51.486;7.144;2022-10-03T02:24:54;30.52;;;6.35;;
31732;SDS011;18312;51.486;7.144;2022-10-03T02:27:41;24.52;;;6.50;;
31732;SDS011;18312;51.486;7.144;2022-10-03T02:30:20;27.90;;;7.47;;
31732;SDS011;18312;51.486;7.144;2022-10-03T02:33:22;24.42;;;7.30;;
31732;SDS011;18312;51.486;7.144;2022-10-03T02:39:26;32.63;;;7.43;;
31732;SDS011;18312;51.486;7.144;2022-10-03T02:42:30;22.30;;;7.97;;
31732;SDS011;18312;51.486;7.144;2022-10-03T02:55:10;20.95;;;6.22;;
31732;SDS011;18312;51.486;7.144;2022-10-03T03:01:05;30.17;;;7.93;;
31732;SDS011;18312;51.486;7.144;2022-10-03T03:04:06;24.08;;;6.75;;
31732;SDS011;18312;51.486;7.144;2022-10-03T03:07:03;26.75;;;7.75;;
31732;SDS011;18312;51.486;7.144;2022-10-03T03:10:00;30.30;;;7.53;;
31732;SDS011;18312;51.486;7.144;2022-10-03T03:13:00;27.13;;;7.50;;
31732;SDS011;18312;51.486;7.144;2022-10-03T03:19:03;21.90;;;7.90;;
31732;SDS011;18312;51.486;7.144;2022-10-03T03:21:43;23.83;;;7.97;;
31732;SDS011;18312;51.486;7.144;2022-10-03T03:24:23;31.65;;;7.72;;
31732;SDS011;18312;51.486;7.144;2022-10-03T03:29:45;27.48;;;8.65;;
31732;SDS011;18312;51.486;7.144;2022-10-03T03:32:20;31.83;;;7.82;;
31732;SDS011;18312;51.486;7.144;2022-10-03T03:34:58;33.45;;;8.68;;
31732;SDS011;18312;51.486;7.144;2022-10-03T03:37:38;29.35;;;9.75;;
31732;SDS011;18312;51.486;7.144;2022-10-03T03:40:22;32.40;;;8.00;;
31732;SDS011;18312;51.486;7.144;2022-10-03T03:43:07;30.92;;;8.93;;
31732;SDS011;18312;51.486;7.144;2022-10-03T03:45:48;28.75;;;8.77;;
31732;SDS011;18312;51.486;7.144;2022-10-03T03:48:28;30.92;;;8.73;;
31732;SDS011;18312;51.486;7.144;2022-10-03T03:51:10;29.42;;;9.05;;
31732;SDS011;18312;51.486;7.144;2022-10-03T03:59:43;28.92;;;8.18;;
31732;SDS011;18312;51.486;7.144;2022-10-03T04:02:27;24.48;;;8.98;;
31732;SDS011;18312;51.486;7.144;2022-10-03T04:05:25;33.75;;;10.00;;
31732;SDS011;18312;51.486;7.144;2022-10-03T04:08:02;45.88;;;11.70;;
31732;SDS011;18312;51.486;7.144;2022-10-03T04:10:41;37.90;;;10.13;;
31732;SDS011;18312;51.486;7.144;2022-10-03T04:13:28;25.90;;;8.45;;
31732;SDS011;18312;51.486;7.144;2022-10-03T04:16:25;31.02;;;9.25;;
31732;SDS011;18312;51.486;7.144;2022-10-03T04:19:29;40.03;;;9.30;;
31732;SDS011;18312;51.486;7.144;2022-10-03T04:22:23;38.05;;;10.95;;
31732;SDS011;18312;51.486;7.144;2022-10-03T04:25:08;33.42;;;9.52;;
31732;SDS011;18312;51.486;7.144;2022-10-03T04:28:01;31.90;;;8.50;;
31732;SDS011;18312;51.486;7.144;2022-10-03T04:30:45;31.92;;;9.68;;
31732;SDS011;18312;51.486;7.144;2022-10-03T04:33:26;28.67;;;8.65;;
31732;SDS011;18312;51.486;7.144;2022-10-03T04:38:53;30.45;;;10.80;;
31732;SDS011;18312;51.486;7.144;2022-10-03T04:41:32;35.35;;;10.85;;
31732;SDS011;18312;51.486;7.144;2022-10-03T04:44:08;40.25;;;10.25;;
31732;SDS011;18312;51.486;7.144;2022-10-03T04:46:46;46.15;;;10.40;;
31732;SDS011;18312;51.486;7.144;2022-10-03T04:49:22;37.50;;;10.13;;
31732;SDS011;18312;51.486;7.144;2022-10-03T04:51:56;38.38;;;11.25;;
31732;SDS011;18312;51.486;7.144;2022-10-03T04:54:28;36.00;;;10.73;;
31732;SDS011;18312;51.486;7.144;2022-10-03T04:57:10;38.90;;;11.63;;
31732;SDS011;18312;51.486;7.144;2022-10-03T04:59:47;36.40;;;10.73;;
31732;SDS011;18312;51.486;7.144;2022-10-03T05:02:22;42.83;;;12.18;;
31732;SDS011;18312;51.486;7.144;2022-10-03T05:05:10;34.15;;;11.48;;
31732;SDS011;18312;51.486;7.144;2022-10-03T05:07:51;38.72;;;11.95;;
31732;SDS011;18312;51.486;7.144;2022-10-03T05:13:35;45.92;;;11.57;;
31732;SDS011;18312;51.486;7.144;2022-10-03T05:16:14;47.10;;;10.98;;
31732;SDS011;18312;51.486;7.144;2022-10-03T05:18:48;41.33;;;12.25;;
31732;SDS011;18312;51.486;7.144;2022-10-03T05:21:25;40.47;;;10.73;;
31732;SDS011;18312;51.486;7.144;2022-10-03T05:24:00;33.05;;;11.80;;
31732;SDS011;18312;51.486;7.144;2022-10-03T05:26:40;37.20;;;11.20;;
31732;SDS011;18312;51.486;7.144;2022-10-03T05:29:16;46.83;;;11.73;;
31732;SDS011;18312;51.486;7.144;2022-10-03T05:31:54;48.05;;;12.60;;
31732;SDS011;18312;51.486;7.144;2022-10-03T05:34:49;37.83;;;11.20;;
31732;SDS011;18312;51.486;7.144;2022-10-03T05:40:32;39.58;;;11.18;;
31732;SDS011;18312;51.486;7.144;2022-10-03T05:43:02;43.13;;;11.18;;
31732;SDS011;18312;51.486;7.144;2022-10-03T05:45:38;34.40;;;11.85;;
31732;SDS011;18312;51.486;7.144;2022-10-03T05:48:16;45.17;;;13.43;;
31732;SDS011;18312;51.486;7.144;2022-10-03T05:50:59;35.35;;;11.75;;
31732;SDS011;18312;51.486;7.144;2022-10-03T05:56:59;42.88;;;12.20;;
31732;SDS011;18312;51.486;7.144;2022-10-03T06:05:51;44.70;;;12.85;;
31732;SDS011;18312;51.486;7.144;2022-10-03T06:08:35;41.53;;;12.13;;
31732;SDS011;18312;51.486;7.144;2022-10-03T06:11:19;45.85;;;12.50;;
31732;SDS011;18312;51.486;7.144;2022-10-03T06:14:20;47.65;;;14.18;;
31732;SDS011;18312;51.486;7.144;2022-10-03T06:17:10;39.55;;;11.32;;
31732;SDS011;18312;51.486;7.144;2022-10-03T06:20:02;51.28;;;12.88;;
31732;SDS011;18312;51.486;7.144;2022-10-03T06:29:18;40.97;;;13.77;;
31732;SDS011;18312;51.486;7.144;2022-10-03T06:38:32;43.63;;;13.40;;
31732;SDS011;18312;51.486;7.144;2022-10-03T06:44:36;40.95;;;11.38;;
31732;SDS011;18312;51.486;7.144;2022-10-03T06:47:24;32.13;;;10.63;;
31732;SDS011;18312;51.486;7.144;2022-10-03T06:50:17;35.63;;;12.10;;
31732;SDS011;18312;51.486;7.144;2022-10-03T06:53:16;33.40;;;10.73;;
31732;SDS011;18312;51.486;7.144;2022-10-03T06:56:08;35.80;;;11.13;;
31732;SDS011;18312;51.486;7.144;2022-10-03T07:02:28;25.58;;;9.77;;
31732;SDS011;18312;51.486;7.144;2022-10-03T07:08:29;24.85;;;9.95;;
31732;SDS011;18312;51.486;7.144;2022-10-03T07:11:45;26.48;;;9.45;;
31732;SDS011;18312;51.486;7.144;2022-10-03T07:14:53;35.00;;;10.15;;
31732;SDS011;18312;51.486;7.144;2022-10-03T07:17:53;29.27;;;9.68;;
31732;SDS011;18312;51.486;7.144;2022-10-03T07:20:47;25.58;;;8.05;;
31732;SDS011;18312;51.486;7.144;2022-10-03T07:23:33;23.30;;;8.88;;
31732;SDS011;18312;51.486;7.144;2022-10-03T07:29:38;25.63;;;6.70;;
31732;SDS011;18312;51.486;7.144;2022-10-03T07:35:37;15.80;;;7.93;;
31732;SDS011;18312;51.486;7.144;2022-10-03T07:41:43;17.45;;;7.72;;
31732;SDS011;18312;51.486;7.144;2022-10-03T07:47:49;17.95;;;6.13;;
31732;SDS011;18312;51.486;7.144;2022-10-03T07:50:49;22.73;;;7.75;;
31732;SDS011;18312;51.486;7.144;2022-10-03T07:56:52;21.45;;;6.82;;
31732;SDS011;18312;51.486;7.144;2022-10-03T07:59:51;20.73;;;6.82;;
31732;SDS011;18312;51.486;7.144;2022-10-03T08:02:36;24.08;;;7.25;;
31732;SDS011;18312;51.486;7.144;2022-10-03T08:05:30;15.13;;;6.97;;
31732;SDS011;18312;51.486;7.144;2022-10-03T08:08:12;25.35;;;7.25;;
31732;SDS011;18312;51.486;7.144;2022-10-03T08:14:24;21.45;;;7.45;;
31732;SDS011;18312;51.486;7.144;2022-10-03T08:17:09;16.65;;;7.20;;
31732;SDS011;18312;51.486;7.144;2022-10-03T08:20:16;22.25;;;7.10;;
31732;SDS011;18312;51.486;7.144;2022-10-03T08:23:09;23.48;;;6.75;;
31732;SDS011;18312;51.486;7.144;2022-10-03T08:25:50;18.25;;;5.93;;
31732;SDS011;18312;51.486;7.144;2022-10-03T08:28:31;18.13;;;5.45;;
31732;SDS011;18312;51.486;7.144;2022-10-03T08:31:12;15.35;;;6.45;;
31732;SDS011;18312;51.486;7.144;2022-10-03T08:37:12;16.98;;;5.68;;
31732;SDS011;18312;51.486;7.144;2022-10-03T08:40:01;16.85;;;5.32;;
31732;SDS011;18312;51.486;7.144;2022-10-03T08:43:31;16.27;;;5.63;;
31732;SDS011;18312;51.486;7.144;2022-10-03T08:46:25;20.60;;;5.82;;
31732;SDS011;18312;51.486;7.144;2022-10-03T08:49:16;22.90;;;5.80;;
31732;SDS011;18312;51.486;7.144;2022-10-03T08:52:09;20.80;;;4.68;;
31732;SDS011;18312;51.486;7.144;2022-10-03T08:54:51;13.43;;;4.85;;
31732;SDS011;18312;51.486;7.144;2022-10-03T09:00:38;12.70;;;3.92;;
31732;SDS011;18312;51.486;7.144;2022-10-03T09:03:38;14.88;;;4.50;;
31732;SDS011;18312;51.486;7.144;2022-10-03T09:12:39;14.50;;;4.43;;
31732;SDS011;18312;51.486;7.144;2022-10-03T09:18:38;22.75;;;4.05;;
31732;SDS011;18312;51.486;7.144;2022-10-03T09:21:37;12.38;;;3.33;;
31732;SDS011;18312;51.486;7.144;2022-10-03T09:24:55;20.30;;;4.70;;
31732;SDS011;18312;51.486;7.144;2022-10-03T09:27:48;18.15;;;4.53;;
31732;SDS011;18312;51.486;7.144;2022-10-03T09:30:46;20.42;;;3.63;;
31732;SDS011;18312;51.486;7.144;2022-10-03T09:39:39;15.25;;;3.70;;
31732;SDS011;18312;51.486;7.144;2022-10-03T09:42:40;10.88;;;3.92;;
31732;SDS011;18312;51.486;7.144;2022-10-03T09:45:31;10.30;;;3.10;;
31732;SDS011;18312;51.486;7.144;2022-10-03T09:48:21;8.25;;;2.80;;
31732;SDS011;18312;51.486;7.144;2022-10-03T09:54:20;12.38;;;2.50;;
31732;SDS011;18312;51.486;7.144;2022-10-03T10:00:21;10.18;;;2.20;;
31732;SDS011;18312;51.486;7.144;2022-10-03T10:06:13;14.43;;;3.17;;
31732;SDS011;18312;51.486;7.144;2022-10-03T10:18:18;10.98;;;1.73;;
31732;SDS011;18312;51.486;7.144;2022-10-03T10:21:25;9.38;;;1.33;;
31732;SDS011;18312;51.486;7.144;2022-10-03T10:24:24;8.13;;;1.23;;
31732;SDS011;18312;51.486;7.144;2022-10-03T10:27:30;8.15;;;1.58;;
31732;SDS011;18312;51.486;7.144;2022-10-03T10:30:18;6.28;;;1.23;;
31732;SDS011;18312;51.486;7.144;2022-10-03T10:39:13;7.88;;;1.75;;
31732;SDS011;18312;51.486;7.144;2022-10-03T10:42:14;6.85;;;1.52;;
31732;SDS011;18312;51.486;7.144;2022-10-03T10:45:14;6.38;;;1.30;;
31732;SDS011;18312;51.486;7.144;2022-10-03T10:48:26;6.43;;;1.55;;
31732;SDS011;18312;51.486;7.144;2022-10-03T10:54:36;9.57;;;1.33;;
31732;SDS011;18312;51.486;7.144;2022-10-03T10:57:20;6.25;;;1.27;;
31732;SDS011;18312;51.486;7.144;2022-10-03T11:00:13;14.05;;;1.90;;
31732;SDS011;18312;51.486;7.144;2022-10-03T11:06:21;7.07;;;1.48;;
31732;SDS011;18312;51.486;7.144;2022-10-03T11:09:27;8.55;;;1.42;;
31732;SDS011;18312;51.486;7.144;2022-10-03T11:15:43;6.03;;;1.50;;
31732;SDS011;18312;51.486;7.144;2022-10-03T11:18:41;8.55;;;1.55;;
31732;SDS011;18312;51.486;7.144;2022-10-03T11:21:51;7.78;;;1.48;;
31732;SDS011;18312;51.486;7.144;2022-10-03T11:24:57;4.28;;;1.40;;
31732;SDS011;18312;51.486;7.144;2022-10-03T11:27:56;9.73;;;1.15;;
31732;SDS011;18312;51.486;7.144;2022-10-03T11:31:09;3.25;;;0.75;;
31732;SDS011;18312;51.486;7.144;2022-10-03T11:34:16;3.42;;;0.90;;
31732;SDS011;18312;51.486;7.144;2022-10-03T11:37:14;6.18;;;1.00;;
31732;SDS011;18312;51.486;7.144;2022-10-03T11:40:04;7.28;;;1.10;;
31732;SDS011;18312;51.486;7.144;2022-10-03T11:42:52;2.78;;;0.75;;
31732;SDS011;18312;51.486;7.144;2022-10-03T11:45:26;3.63;;;0.93;;
31732;SDS011;18312;51.486;7.144;2022-10-03T11:48:11;3.10;;;0.90;;
31732;SDS011;18312;51.486;7.144;2022-10-03T11:51:06;7.72;;;1.27;;
31732;SDS011;18312;51.486;7.144;2022-10-03T11:53:43;3.90;;;1.50;;
31732;SDS011;18312;51.486;7.144;2022-10-03T11:59:25;5.30;;;0.93;;
31732;SDS011;18312;51.486;7.144;2022-10-03T12:02:06;6.55;;;1.13;;
31732;SDS011;18312;51.486;7.144;2022-10-03T12:04:43;8.40;;;1.25;;
31732;SDS011;18312;51.486;7.144;2022-10-03T12:07:17;4.47;;;1.35;;
31732;SDS011;18312;51.486;7.144;2022-10-03T12:10:16;5.05;;;1.38;;
31732;SDS011;18312;51.486;7.144;2022-10-03T12:13:02;5.40;;;1.02;;
31732;SDS011;18312;51.486;7.144;2022-10-03T12:15:34;6.32;;;1.08;;
31732;SDS011;18312;51.486;7.144;2022-10-03T12:20:56;6.65;;;1.10;;
31732;SDS011;18312;51.486;7.144;2022-10-03T12:23:34;6.38;;;0.95;;
31732;SDS011;18312;51.486;7.144;2022-10-03T12:26:22;3.28;;;1.00;;
31732;SDS011;18312;51.486;7.144;2022-10-03T12:28:56;5.75;;;0.82;;
31732;SDS011;18312;51.486;7.144;2022-10-03T12:31:32;7.90;;;1.05;;
31732;SDS011;18312;51.486;7.144;2022-10-03T12:34:07;5.40;;;1.00;;
31732;SDS011;18312;51.486;7.144;2022-10-03T12:36:51;6.78;;;0.98;;
31732;SDS011;18312;51.486;7.144;2022-10-03T12:39:33;7.05;;;0.80;;
31732;SDS011;18312;51.486;7.144;2022-10-03T12:42:18;5.00;;;0.90;;
31732;SDS011;18312;51.486;7.144;2022-10-03T12:44:53;3.88;;;0.77;;
31732;SDS011;18312;51.486;7.144;2022-10-03T12:47:26;8.70;;;0.80;;
31732;SDS011;18312;51.486;7.144;2022-10-03T12:50:01;3.03;;;0.77;;
31732;SDS011;18312;51.486;7.144;2022-10-03T12:52:38;5.60;;;1.30;;
31732;SDS011;18312;51.486;7.144;2022-10-03T12:55:18;4.65;;;0.50;;
31732;SDS011;18312;51.486;7.144;2022-10-03T12:57:51;3.05;;;0.85;;
31732;SDS011;18312;51.486;7.144;2022-10-03T13:00:26;7.47;;;0.75;;
31732;SDS011;18312;51.486;7.144;2022-10-03T13:05:53;4.88;;;0.98;;
31732;SDS011;18312;51.486;7.144;2022-10-03T13:08:46;3.10;;;0.95;;
31732;SDS011;18312;51.486;7.144;2022-10-03T13:11:27;3.15;;;0.88;;
31732;SDS011;18312;51.486;7.144;2022-10-03T13:14:05;3.50;;;0.80;;
31732;SDS011;18312;51.486;7.144;2022-10-03T13:16:42;4.32;;;1.25;;
31732;SDS011;18312;51.486;7.144;2022-10-03T13:19:24;6.88;;;0.68;;
31732;SDS011;18312;51.486;7.144;2022-10-03T13:21:55;7.68;;;1.00;;
31732;SDS011;18312;51.486;7.144;2022-10-03T13:24:32;3.97;;;0.80;;
31732;SDS011;18312;51.486;7.144;2022-10-03T13:27:08;7.13;;;0.90;;
31732;SDS011;18312;51.486;7.144;2022-10-03T13:29:44;4.65;;;1.00;;
31732;SDS011;18312;51.486;7.144;2022-10-03T13:32:19;6.07;;;0.98;;
31732;SDS011;18312;51.486;7.144;2022-10-03T13:34:56;4.85;;;0.93;;
31732;SDS011;18312;51.486;7.144;2022-10-03T13:41:04;4.47;;;0.77;;
31732;SDS011;18312;51.486;7.144;2022-10-03T13:43:40;11.70;;;1.17;;
31732;SDS011;18312;51.486;7.144;2022-10-03T13:46:14;4.53;;;1.13;;
31732;SDS011;18312;51.486;7.144;2022-10-03T13:48:45;5.10;;;1.23;;
31732;SDS011;18312;51.486;7.144;2022-10-03T13:51:22;2.05;;;0.50;;
31732;SDS011;18312;51.486;7.144;2022-10-03T13:53:56;4.03;;;1.10;;
31732;SDS011;18312;51.486;7.144;2022-10-03T13:59:25;6.93;;;0.80;;
31732;SDS011;18312;51.486;7.144;2022-10-03T14:02:02;6.22;;;1.25;;
31732;SDS011;18312;51.486;7.144;2022-10-03T14:04:43;7.18;;;1.13;;
31732;SDS011;18312;51.486;7.144;2022-10-03T14:07:23;4.22;;;0.60;;
31732;SDS011;18312;51.486;7.144;2022-10-03T14:13:04;8.95;;;1.10;;
31732;SDS011;18312;51.486;7.144;2022-10-03T14:15:43;5.50;;;0.90;;
31732;SDS011;18312;51.486;7.144;2022-10-03T14:18:20;2.83;;;0.85;;
31732;SDS011;18312;51.486;7.144;2022-10-03T14:21:10;3.53;;;0.52;;
31732;SDS011;18312;51.486;7.144;2022-10-03T14:23:52;3.00;;;0.85;;
31732;SDS011;18312;51.486;7.144;2022-10-03T14:26:28;3.70;;;0.90;;
31732;SDS011;18312;51.486;7.144;2022-10-03T14:29:09;3.58;;;0.85;;
31732;SDS011;18312;51.486;7.144;2022-10-03T14:31:46;5.22;;;1.52;;
31732;SDS011;18312;51.486;7.144;2022-10-03T14:34:22;5.75;;;1.10;;
31732;SDS011;18312;51.486;7.144;2022-10-03T14:37:02;4.95;;;0.70;;
31732;SDS011;18312;51.486;7.144;2022-10-03T14:39:39;2.50;;;0.63;;
31732;SDS011;18312;51.486;7.144;2022-10-03T14:42:25;3.75;;;0.70;;
31732;SDS011;18312;51.486;7.144;2022-10-03T14:45:02;5.55;;;0.80;;
31732;SDS011;18312;51.486;7.144;2022-10-03T14:47:34;7.28;;;0.80;;
31732;SDS011;18312;51.486;7.144;2022-10-03T14:50:04;6.00;;;0.70;;
31732;SDS011;18312;51.486;7.144;2022-10-03T14:52:33;4.38;;;0.60;;
31732;SDS011;18312;51.486;7.144;2022-10-03T14:55:07;5.45;;;1.05;;
31732;SDS011;18312;51.486;7.144;2022-10-03T14:57:40;3.22;;;0.95;;
31732;SDS011;18312;51.486;7.144;2022-10-03T15:00:22;2.38;;;0.40;;
31732;SDS011;18312;51.486;7.144;2022-10-03T15:02:52;4.63;;;0.80;;
31732;SDS011;18312;51.486;7.144;2022-10-03T15:05:20;2.08;;;0.85;;
31732;SDS011;18312;51.486;7.144;2022-10-03T15:07:56;2.92;;;0.88;;
31732;SDS011;18312;51.486;7.144;2022-10-03T15:10:25;4.65;;;0.70;;
31732;SDS011;18312;51.486;7.144;2022-10-03T15:12:54;3.10;;;0.73;;
31732;SDS011;18312;51.486;7.144;2022-10-03T15:15:31;3.92;;;1.88;;
31732;SDS011;18312;51.486;7.144;2022-10-03T15:18:03;7.13;;;1.02;;
31732;SDS011;18312;51.486;7.144;2022-10-03T15:20:35;7.47;;;0.80;;
31732;SDS011;18312;51.486;7.144;2022-10-03T15:23:06;2.03;;;0.75;;
31732;SDS011;18312;51.486;7.144;2022-10-03T15:25:42;1.40;;;0.52;;
31732;SDS011;18312;51.486;7.144;2022-10-03T15:28:24;5.90;;;0.85;;
31732;SDS011;18312;51.486;7.144;2022-10-03T15:31:05;2.67;;;0.98;;
31732;SDS011;18312;51.486;7.144;2022-10-03T15:33:36;5.90;;;0.65;;
31732;SDS011;18312;51.486;7.144;2022-10-03T15:36:07;3.17;;;0.93;;
31732;SDS011;18312;51.486;7.144;2022-10-03T15:38:42;3.92;;;0.80;;
31732;SDS011;18312;51.486;7.144;2022-10-03T15:41:16;2.88;;;0.50;;
31732;SDS011;18312;51.486;7.144;2022-10-03T15:43:49;4.70;;;0.93;;
31732;SDS011;18312;51.486;7.144;2022-10-03T15:46:28;2.30;;;0.95;;
31732;SDS011;18312;51.486;7.144;2022-10-03T15:48:59;10.02;;;1.42;;
31732;SDS011;18312;51.486;7.144;2022-10-03T15:51:30;3.90;;;0.88;;
31732;SDS011;18312;51.486;7.144;2022-10-03T15:54:11;3.08;;;0.60;;
31732;SDS011;18312;51.486;7.144;2022-10-03T15:56:44;4.88;;;0.82;;
31732;SDS011;18312;51.486;7.144;2022-10-03T15:59:16;4.43;;;0.88;;
31732;SDS011;18312;51.486;7.144;2022-10-03T16:01:49;1.15;;;0.82;;
31732;SDS011;18312;51.486;7.144;2022-10-03T16:04:23;7.88;;;0.98;;
31732;SDS011;18312;51.486;7.144;2022-10-03T16:06:54;5.68;;;0.88;;
31732;SDS011;18312;51.486;7.144;2022-10-03T16:09:28;7.07;;;0.77;;
31732;SDS011;18312;51.486;7.144;2022-10-03T16:12:04;4.53;;;0.55;;
31732;SDS011;18312;51.486;7.144;2022-10-03T16:14:43;4.63;;;0.70;;
31732;SDS011;18312;51.486;7.144;2022-10-03T16:17:14;2.95;;;0.82;;
31732;SDS011;18312;51.486;7.144;2022-10-03T16:19:48;5.03;;;1.25;;
31732;SDS011;18312;51.486;7.144;2022-10-03T16:22:20;6.95;;;0.57;;
31732;SDS011;18312;51.486;7.144;2022-10-03T16:24:56;7.80;;;1.33;;
31732;SDS011;18312;51.486;7.144;2022-10-03T16:27:28;2.13;;;1.27;;
31732;SDS011;18312;51.486;7.144;2022-10-03T16:30:09;2.80;;;1.05;;
31732;SDS011;18312;51.486;7.144;2022-10-03T16:32:44;3.35;;;1.00;;
31732;SDS011;18312;51.486;7.144;2022-10-03T16:35:23;4.47;;;1.30;;
31732;SDS011;18312;51.486;7.144;2022-10-03T16:37:56;7.47;;;1.30;;
31732;SDS011;18312;51.486;7.144;2022-10-03T16:40:23;3.17;;;1.35;;
31732;SDS011;18312;51.486;7.144;2022-10-03T16:42:54;3.42;;;1.00;;
31732;SDS011;18312;51.486;7.144;2022-10-03T16:45:25;5.18;;;1.27;;
31732;SDS011;18312;51.486;7.144;2022-10-03T16:47:58;4.70;;;1.23;;
31732;SDS011;18312;51.486;7.144;2022-10-03T16:50:46;4.18;;;1.10;;
31732;SDS011;18312;51.486;7.144;2022-10-03T16:53:16;7.78;;;1.67;;
31732;SDS011;18312;51.486;7.144;2022-10-03T16:55:48;5.18;;;1.40;;
31732;SDS011;18312;51.486;7.144;2022-10-03T17:00:51;6.47;;;0.97;;
31732;SDS011;18312;51.486;7.144;2022-10-03T17:03:25;6.15;;;1.20;;
31732;SDS011;18312;51.486;7.144;2022-10-03T17:06:00;4.45;;;0.90;;
31732;SDS011;18312;51.486;7.144;2022-10-03T17:08:31;3.05;;;1.08;;
31732;SDS011;18312;51.486;7.144;2022-10-03T17:11:05;5.28;;;1.02;;
31732;SDS011;18312;51.486;7.144;2022-10-03T17:13:38;3.40;;;1.02;;
31732;SDS011;18312;51.486;7.144;2022-10-03T17:16:11;5.80;;;0.95;;
31732;SDS011;18312;51.486;7.144;2022-10-03T17:18:46;5.57;;;1.65;;
31732;SDS011;18312;51.486;7.144;2022-10-03T17:21:25;6.22;;;1.10;;
31732;SDS011;18312;51.486;7.144;2022-10-03T17:23:56;3.17;;;1.02;;
31732;SDS011;18312;51.486;7.144;2022-10-03T17:26:32;5.47;;;1.40;;
31732;SDS011;18312;51.486;7.144;2022-10-03T17:29:06;2.03;;;1.30;;
31732;SDS011;18312;51.486;7.144;2022-10-03T17:31:40;9.95;;;1.75;;
31732;SDS011;18312;51.486;7.144;2022-10-03T17:34:13;5.07;;;1.65;;
31732;SDS011;18312;51.486;7.144;2022-10-03T17:36:49;4.93;;;1.45;;
31732;SDS011;18312;51.486;7.144;2022-10-03T17:39:49;1.70;;;1.17;;
31732;SDS011;18312;51.486;7.144;2022-10-03T17:42:27;3.58;;;1.60;;
31732;SDS011;18312;51.486;7.144;2022-10-03T17:45:09;3.95;;;1.60;;
31732;SDS011;18312;51.486;7.144;2022-10-03T17:47:51;3.20;;;1.50;;
31732;SDS011;18312;51.486;7.144;2022-10-03T17:50:26;7.18;;;1.88;;
31732;SDS011;18312;51.486;7.144;2022-10-03T17:52:56;10.15;;;2.20;;
31732;SDS011;18312;51.486;7.144;2022-10-03T17:55:28;4.35;;;1.95;;
31732;SDS011;18312;51.486;7.144;2022-10-03T17:58:01;5.00;;;2.15;;
31732;SDS011;18312;51.486;7.144;2022-10-03T18:00:30;10.73;;;2.38;;
31732;SDS011;18312;51.486;7.144;2022-10-03T18:03:05;6.57;;;2.28;;
31732;SDS011;18312;51.486;7.144;2022-10-03T18:05:40;7.78;;;2.28;;
31732;SDS011;18312;51.486;7.144;2022-10-03T18:08:11;6.35;;;2.10;;
31732;SDS011;18312;51.486;7.144;2022-10-03T18:10:46;4.10;;;1.85;;
31732;SDS011;18312;51.486;7.144;2022-10-03T18:13:20;6.70;;;2.17;;
31732;SDS011;18312;51.486;7.144;2022-10-03T18:16:04;8.07;;;2.70;;
31732;SDS011;18312;51.486;7.144;2022-10-03T18:19:02;12.52;;;3.13;;
31732;SDS011;18312;51.486;7.144;2022-10-03T18:21:39;11.18;;;3.30;;
31732;SDS011;18312;51.486;7.144;2022-10-03T18:24:28;12.23;;;3.40;;
31732;SDS011;18312;51.486;7.144;2022-10-03T18:27:08;13.77;;;3.60;;
31732;SDS011;18312;51.486;7.144;2022-10-03T18:29:51;7.72;;;2.92;;
31732;SDS011;18312;51.486;7.144;2022-10-03T18:32:26;14.35;;;4.57;;
31732;SDS011;18312;51.486;7.144;2022-10-03T18:40:44;13.75;;;4.75;;
31732;SDS011;18312;51.486;7.144;2022-10-03T18:43:28;13.45;;;4.50;;
31732;SDS011;18312;51.486;7.144;2022-10-03T18:46:08;18.33;;;5.65;;
31732;SDS011;18312;51.486;7.144;2022-10-03T18:48:54;15.30;;;4.22;;
31732;SDS011;18312;51.486;7.144;2022-10-03T18:51:26;11.50;;;4.55;;
31732;SDS011;18312;51.486;7.144;2022-10-03T18:53:57;16.20;;;6.10;;
31732;SDS011;18312;51.486;7.144;2022-10-03T18:56:31;10.25;;;5.18;;
31732;SDS011;18312;51.486;7.144;2022-10-03T18:59:17;13.07;;;4.43;;
31732;SDS011;18312;51.486;7.144;2022-10-03T19:01:54;13.05;;;4.95;;
31732;SDS011;18312;51.486;7.144;2022-10-03T19:04:31;15.13;;;4.82;;
31732;SDS011;18312;51.486;7.144;2022-10-03T19:07:07;11.55;;;4.70;;
31732;SDS011;18312;51.486;7.144;2022-10-03T19:09:53;17.80;;;4.88;;